sensor_id;sensor_type;location;lat;lon;timestamp;temperature;humidity
41924;DHT22;27613;48.116;11.656;2023-04-03T00:01:29;2.50;99.90
41924;DHT22;27613;48.116;11.656;2023-04-03T00:03:55;2.50;99.90
41924;DHT22;27613;48.116;11.656;2023-04-03T00:06:22;2.30;99.90
41924;DHT22;27613;48.116;11.656;2023-04-03T00:08:48;2.30;99.90
41924;DHT22;27613;48.116;11.656;2023-04-03T00:11:14;2.30;99.90
41924;DHT22;27613;48.116;11.656;2023-04-03T00:13:40;2.30;99.90
41924;DHT22;27613;48.116;11.656;2023-04-03T00:16:07;2.30;99.90
41924;DHT22;27613;48.116;11.656;2023-04-03T00:18:33;2.30;99.90
41924;DHT22;27613;48.116;11.656;2023-04-03T00:20:58;2.20;99.90
41924;DHT22;27613;48.116;11.656;2023-04-03T00:23:24;2.20;99.90
41924;DHT22;27613;48.116;11.656;2023-04-03T00:25:50;2.20;99.90
41924;DHT22;27613;48.116;11.656;2023-04-03T00:28:16;2.30;99.90
41924;DHT22;27613;48.116;11.656;2023-04-03T00:30:41;2.30;99.90
41924;DHT22;27613;48.116;11.656;2023-04-03T00:33:07;2.30;99.90
41924;DHT22;27613;48.116;11.656;2023-04-03T00:35:34;2.40;99.90
41924;DHT22;27613;48.116;11.656;2023-04-03T00:37:59;2.30;99.90
41924;DHT22;27613;48.116;11.656;2023-04-03T00:40:26;2.40;99.90
41924;DHT22;27613;48.116;11.656;2023-04-03T00:42:59;2.30;99.90
41924;DHT22;27613;48.116;11.656;2023-04-03T00:47:50;2.50;99.90
41924;DHT22;27613;48.116;11.656;2023-04-03T00:50:16;2.40;99.90
41924;DHT22;27613;48.116;11.656;2023-04-03T00:52:42;2.40;99.90
41924;DHT22;27613;48.116;11.656;2023-04-03T00:55:11;2.40;99.90
41924;DHT22;27613;48.116;11.656;2023-04-03T00:57:37;2.40;99.90
41924;DHT22;27613;48.116;11.656;2023-04-03T01:00:10;2.40;99.90
41924;DHT22;27613;48.116;11.656;2023-04-03T01:02:36;2.50;99.90
41924;DHT22;27613;48.116;11.656;2023-04-03T01:05:02;2.50;99.90
41924;DHT22;27613;48.116;11.656;2023-04-03T01:07:30;2.30;99.90
41924;DHT22;27613;48.116;11.656;2023-04-03T01:09:59;2.50;99.90
41924;DHT22;27613;48.116;11.656;2023-04-03T01:12:36;2.50;99.90
41924;DHT22;27613;48.116;11.656;2023-04-03T01:15:17;2.50;99.90
41924;DHT22;27613;48.116;11.656;2023-04-03T01:17:49;2.50;99.90
41924;DHT22;27613;48.116;11.656;2023-04-03T01:25:33;2.30;99.90
41924;DHT22;27613;48.116;11.656;2023-04-03T01:27:59;2.40;99.90
41924;DHT22;27613;48.116;11.656;2023-04-03T01:30:30;2.40;99.90
41924;DHT22;27613;48.116;11.656;2023-04-03T01:32:56;2.40;99.90
41924;DHT22;27613;48.116;11.656;2023-04-03T01:35:22;2.50;99.90
41924;DHT22;27613;48.116;11.656;2023-04-03T01:37:48;2.40;99.90
41924;DHT22;27613;48.116;11.656;2023-04-03T01:40:13;2.30;99.90
41924;DHT22;27613;48.116;11.656;2023-04-03T01:42:39;2.40;99.90
41924;DHT22;27613;48.116;11.656;2023-04-03T01:45:05;2.40;99.90
41924;DHT22;27613;48.116;11.656;2023-04-03T01:47:31;2.30;99.90
41924;DHT22;27613;48.116;11.656;2023-04-03T01:49:56;2.30;99.90
41924;DHT22;27613;48.116;11.656;2023-04-03T01:52:22;2.40;99.90
41924;DHT22;27613;48.116;11.656;2023-04-03T01:54:47;2.30;99.90
41924;DHT22;27613;48.116;11.656;2023-04-03T01:57:13;2.30;99.90
41924;DHT22;27613;48.116;11.656;2023-04-03T01:59:40;2.40;99.90
41924;DHT22;27613;48.116;11.656;2023-04-03T02:02:06;2.50;99.90
41924;DHT22;27613;48.116;11.656;2023-04-03T02:04:31;2.40;99.90
41924;DHT22;27613;48.116;11.656;2023-04-03T02:06:57;2.40;99.90
41924;DHT22;27613;48.116;11.656;2023-04-03T02:09:22;2.50;99.90
41924;DHT22;27613;48.116;11.656;2023-04-03T02:11:48;2.50;99.90
41924;DHT22;27613;48.116;11.656;2023-04-03T02:14:13;2.50;99.90
41924;DHT22;27613;48.116;11.656;2023-04-03T02:16:39;2.40;99.90
41924;DHT22;27613;48.116;11.656;2023-04-03T02:19:05;2.50;99.90
41924;DHT22;27613;48.116;11.656;2023-04-03T02:21:30;2.50;99.90
41924;DHT22;27613;48.116;11.656;2023-04-03T02:23:56;2.40;99.90
41924;DHT22;27613;48.116;11.656;2023-04-03T02:26:21;2.40;99.90
41924;DHT22;27613;48.116;11.656;2023-04-03T02:28:47;2.40;99.90
41924;DHT22;27613;48.116;11.656;2023-04-03T02:31:13;2.40;99.90
41924;DHT22;27613;48.116;11.656;2023-04-03T02:33:38;2.40;99.90
41924;DHT22;27613;48.116;11.656;2023-04-03T02:36:05;2.40;99.90
41924;DHT22;27613;48.116;11.656;2023-04-03T02:38:31;2.40;99.90
41924;DHT22;27613;48.116;11.656;2023-04-03T02:41:08;2.40;99.90
41924;DHT22;27613;48.116;11.656;2023-04-03T02:43:34;2.40;99.90
41924;DHT22;27613;48.116;11.656;2023-04-03T02:45:59;2.40;99.90
41924;DHT22;27613;48.116;11.656;2023-04-03T02:48:25;2.40;99.90
41924;DHT22;27613;48.116;11.656;2023-04-03T02:50:51;2.40;99.90
41924;DHT22;27613;48.116;11.656;2023-04-03T02:53:17;2.40;99.90
41924;DHT22;27613;48.116;11.656;2023-04-03T02:55:43;2.40;99.90
41924;DHT22;27613;48.116;11.656;2023-04-03T02:58:09;2.30;99.90
41924;DHT22;27613;48.116;11.656;2023-04-03T03:00:34;2.30;99.90
41924;DHT22;27613;48.116;11.656;2023-04-03T03:03:00;2.30;99.90
41924;DHT22;27613;48.116;11.656;2023-04-03T03:05:26;2.30;99.90
41924;DHT22;27613;48.116;11.656;2023-04-03T03:07:52;2.40;99.90
41924;DHT22;27613;48.116;11.656;2023-04-03T03:10:18;2.40;99.90
41924;DHT22;27613;48.116;11.656;2023-04-03T03:12:43;2.40;99.90
41924;DHT22;27613;48.116;11.656;2023-04-03T03:15:09;2.40;99.90
41924;DHT22;27613;48.116;11.656;2023-04-03T03:17:35;2.30;99.90
41924;DHT22;27613;48.116;11.656;2023-04-03T03:20:02;2.40;99.90
41924;DHT22;27613;48.116;11.656;2023-04-03T03:22:28;2.30;99.90
41924;DHT22;27613;48.116;11.656;2023-04-03T03:24:53;2.30;99.90
41924;DHT22;27613;48.116;11.656;2023-04-03T03:27:20;2.30;99.90
41924;DHT22;27613;48.116;11.656;2023-04-03T03:29:46;2.30;99.90
41924;DHT22;27613;48.116;11.656;2023-04-03T03:32:11;2.20;99.90
41924;DHT22;27613;48.116;11.656;2023-04-03T03:34:37;2.20;99.90
41924;DHT22;27613;48.116;11.656;2023-04-03T03:37:02;2.30;99.90
41924;DHT22;27613;48.116;11.656;2023-04-03T03:39:28;2.30;99.90
41924;DHT22;27613;48.116;11.656;2023-04-03T03:41:54;2.30;99.90
41924;DHT22;27613;48.116;11.656;2023-04-03T03:44:20;2.30;99.90
41924;DHT22;27613;48.116;11.656;2023-04-03T03:46:45;2.30;99.90
41924;DHT22;27613;48.116;11.656;2023-04-03T03:49:11;2.30;99.90
41924;DHT22;27613;48.116;11.656;2023-04-03T03:51:38;2.20;99.90
41924;DHT22;27613;48.116;11.656;2023-04-03T03:54:04;2.30;99.90
41924;DHT22;27613;48.116;11.656;2023-04-03T03:56:30;2.30;99.90
41924;DHT22;27613;48.116;11.656;2023-04-03T03:58:55;2.30;99.90
41924;DHT22;27613;48.116;11.656;2023-04-03T04:01:22;2.30;99.90
41924;DHT22;27613;48.116;11.656;2023-04-03T04:03:48;2.20;99.90
41924;DHT22;27613;48.116;11.656;2023-04-03T04:06:14;2.20;99.90
41924;DHT22;27613;48.116;11.656;2023-04-03T04:08:40;2.30;99.90
41924;DHT22;27613;48.116;11.656;2023-04-03T04:11:06;2.20;99.90
41924;DHT22;27613;48.116;11.656;2023-04-03T04:13:32;2.30;99.90
41924;DHT22;27613;48.116;11.656;2023-04-03T04:15:57;2.20;99.90
41924;DHT22;27613;48.116;11.656;2023-04-03T04:18:23;2.30;99.90
41924;DHT22;27613;48.116;11.656;2023-04-03T04:20:49;2.20;99.90
41924;DHT22;27613;48.116;11.656;2023-04-03T04:23:16;2.20;99.90
41924;DHT22;27613;48.116;11.656;2023-04-03T04:25:44;2.20;99.90
41924;DHT22;27613;48.116;11.656;2023-04-03T04:28:10;2.20;99.90
41924;DHT22;27613;48.116;11.656;2023-04-03T04:30:36;2.10;99.90
41924;DHT22;27613;48.116;11.656;2023-04-03T04:33:02;2.20;99.90
41924;DHT22;27613;48.116;11.656;2023-04-03T04:35:27;2.10;99.90
41924;DHT22;27613;48.116;11.656;2023-04-03T04:37:53;2.20;99.90
41924;DHT22;27613;48.116;11.656;2023-04-03T04:40:18;2.20;99.90
41924;DHT22;27613;48.116;11.656;2023-04-03T04:42:44;2.20;99.90
41924;DHT22;27613;48.116;11.656;2023-04-03T04:45:10;2.20;99.90
41924;DHT22;27613;48.116;11.656;2023-04-03T04:47:35;2.10;99.90
41924;DHT22;27613;48.116;11.656;2023-04-03T04:50:01;2.20;99.90
41924;DHT22;27613;48.116;11.656;2023-04-03T04:52:26;2.20;99.90
41924;DHT22;27613;48.116;11.656;2023-04-03T04:54:52;2.20;99.90
41924;DHT22;27613;48.116;11.656;2023-04-03T04:57:18;2.20;99.90
41924;DHT22;27613;48.116;11.656;2023-04-03T04:59:43;2.20;99.90
41924;DHT22;27613;48.116;11.656;2023-04-03T05:02:09;2.20;99.90
41924;DHT22;27613;48.116;11.656;2023-04-03T05:04:34;2.20;99.90
41924;DHT22;27613;48.116;11.656;2023-04-03T05:07:00;2.20;99.90
41924;DHT22;27613;48.116;11.656;2023-04-03T05:09:25;2.20;99.90
41924;DHT22;27613;48.116;11.656;2023-04-03T05:11:51;2.20;99.90
41924;DHT22;27613;48.116;11.656;2023-04-03T05:14:16;2.20;99.90
41924;DHT22;27613;48.116;11.656;2023-04-03T05:16:42;2.20;99.90
41924;DHT22;27613;48.116;11.656;2023-04-03T05:19:08;2.10;99.90
41924;DHT22;27613;48.116;11.656;2023-04-03T05:21:33;2.20;99.90
41924;DHT22;27613;48.116;11.656;2023-04-03T05:23:59;2.20;99.90
41924;DHT22;27613;48.116;11.656;2023-04-03T05:26:28;2.20;99.90
41924;DHT22;27613;48.116;11.656;2023-04-03T05:28:54;2.20;99.90
41924;DHT22;27613;48.116;11.656;2023-04-03T05:31:19;2.20;99.90
41924;DHT22;27613;48.116;11.656;2023-04-03T05:33:45;2.30;99.90
41924;DHT22;27613;48.116;11.656;2023-04-03T05:36:12;2.30;99.90
41924;DHT22;27613;48.116;11.656;2023-04-03T05:38:38;2.20;99.90
41924;DHT22;27613;48.116;11.656;2023-04-03T05:41:04;2.30;99.90
41924;DHT22;27613;48.116;11.656;2023-04-03T05:43:30;2.20;99.90
41924;DHT22;27613;48.116;11.656;2023-04-03T05:45:56;2.30;99.90
41924;DHT22;27613;48.116;11.656;2023-04-03T05:48:21;2.30;99.90
41924;DHT22;27613;48.116;11.656;2023-04-03T05:50:47;2.30;99.90
41924;DHT22;27613;48.116;11.656;2023-04-03T05:53:27;2.30;99.90
41924;DHT22;27613;48.116;11.656;2023-04-03T05:55:52;2.30;99.90
41924;DHT22;27613;48.116;11.656;2023-04-03T05:58:19;2.40;99.90
41924;DHT22;27613;48.116;11.656;2023-04-03T06:00:44;2.30;99.90
41924;DHT22;27613;48.116;11.656;2023-04-03T06:03:10;2.40;99.90
41924;DHT22;27613;48.116;11.656;2023-04-03T06:05:36;2.40;99.90
41924;DHT22;27613;48.116;11.656;2023-04-03T06:08:02;2.40;99.90
41924;DHT22;27613;48.116;11.656;2023-04-03T06:10:28;2.50;99.90
41924;DHT22;27613;48.116;11.656;2023-04-03T06:12:54;2.60;99.90
41924;DHT22;27613;48.116;11.656;2023-04-03T06:15:20;2.50;99.90
41924;DHT22;27613;48.116;11.656;2023-04-03T06:17:45;2.60;99.90
41924;DHT22;27613;48.116;11.656;2023-04-03T06:20:12;2.70;99.90
41924;DHT22;27613;48.116;11.656;2023-04-03T06:22:37;2.70;99.90
41924;DHT22;27613;48.116;11.656;2023-04-03T06:25:04;2.70;99.90
41924;DHT22;27613;48.116;11.656;2023-04-03T06:27:30;2.70;99.90
41924;DHT22;27613;48.116;11.656;2023-04-03T06:29:55;2.70;99.90
41924;DHT22;27613;48.116;11.656;2023-04-03T06:32:21;2.80;99.90
41924;DHT22;27613;48.116;11.656;2023-04-03T06:34:47;2.80;99.90
41924;DHT22;27613;48.116;11.656;2023-04-03T06:37:17;2.80;99.90
41924;DHT22;27613;48.116;11.656;2023-04-03T06:39:43;2.80;99.90
41924;DHT22;27613;48.116;11.656;2023-04-03T06:42:09;2.80;99.90
41924;DHT22;27613;48.116;11.656;2023-04-03T06:44:35;2.90;99.90
41924;DHT22;27613;48.116;11.656;2023-04-03T06:47:01;2.90;99.90
41924;DHT22;27613;48.116;11.656;2023-04-03T06:49:26;3.00;99.90
41924;DHT22;27613;48.116;11.656;2023-04-03T06:51:52;3.00;99.90
41924;DHT22;27613;48.116;11.656;2023-04-03T06:54:17;3.10;99.90
41924;DHT22;27613;48.116;11.656;2023-04-03T06:56:43;3.10;99.90
41924;DHT22;27613;48.116;11.656;2023-04-03T06:59:09;3.20;99.90
41924;DHT22;27613;48.116;11.656;2023-04-03T07:01:35;3.10;99.90
41924;DHT22;27613;48.116;11.656;2023-04-03T07:04:01;3.20;99.90
41924;DHT22;27613;48.116;11.656;2023-04-03T07:06:26;3.10;99.90
41924;DHT22;27613;48.116;11.656;2023-04-03T07:08:52;3.20;99.90
41924;DHT22;27613;48.116;11.656;2023-04-03T07:11:18;3.40;99.90
41924;DHT22;27613;48.116;11.656;2023-04-03T07:13:44;3.50;99.90
41924;DHT22;27613;48.116;11.656;2023-04-03T07:16:10;3.50;99.90
41924;DHT22;27613;48.116;11.656;2023-04-03T07:18:37;3.50;99.90
41924;DHT22;27613;48.116;11.656;2023-04-03T07:21:04;3.60;99.90
41924;DHT22;27613;48.116;11.656;2023-04-03T07:23:29;3.80;99.90
41924;DHT22;27613;48.116;11.656;2023-04-03T07:25:55;3.80;99.90
41924;DHT22;27613;48.116;11.656;2023-04-03T07:28:22;3.80;99.90
41924;DHT22;27613;48.116;11.656;2023-04-03T07:31:04;3.90;99.90
41924;DHT22;27613;48.116;11.656;2023-04-03T07:33:31;3.90;99.90
41924;DHT22;27613;48.116;11.656;2023-04-03T07:35:57;3.80;99.90
41924;DHT22;27613;48.116;11.656;2023-04-03T07:38:23;3.70;99.90
41924;DHT22;27613;48.116;11.656;2023-04-03T07:40:50;3.80;99.90
41924;DHT22;27613;48.116;11.656;2023-04-03T07:43:16;4.00;99.90
41924;DHT22;27613;48.116;11.656;2023-04-03T07:45:42;3.90;99.90
41924;DHT22;27613;48.116;11.656;2023-04-03T07:48:09;3.90;99.90
41924;DHT22;27613;48.116;11.656;2023-04-03T07:50:35;3.80;99.90
41924;DHT22;27613;48.116;11.656;2023-04-03T07:53:01;3.80;99.90
41924;DHT22;27613;48.116;11.656;2023-04-03T07:55:27;3.80;99.90
41924;DHT22;27613;48.116;11.656;2023-04-03T07:57:52;3.70;99.90
41924;DHT22;27613;48.116;11.656;2023-04-03T08:00:18;3.70;99.90
41924;DHT22;27613;48.116;11.656;2023-04-03T08:02:45;3.60;99.90
41924;DHT22;27613;48.116;11.656;2023-04-03T08:05:16;3.70;99.90
41924;DHT22;27613;48.116;11.656;2023-04-03T08:07:42;3.70;99.90
41924;DHT22;27613;48.116;11.656;2023-04-03T08:10:08;3.60;99.90
41924;DHT22;27613;48.116;11.656;2023-04-03T08:12:34;3.60;99.90
41924;DHT22;27613;48.116;11.656;2023-04-03T08:15:00;3.60;99.90
41924;DHT22;27613;48.116;11.656;2023-04-03T08:17:26;3.70;99.90
41924;DHT22;27613;48.116;11.656;2023-04-03T08:19:52;3.60;99.90
41924;DHT22;27613;48.116;11.656;2023-04-03T08:22:17;3.60;99.90
41924;DHT22;27613;48.116;11.656;2023-04-03T08:24:43;3.80;99.90
41924;DHT22;27613;48.116;11.656;2023-04-03T08:27:09;3.80;99.90
41924;DHT22;27613;48.116;11.656;2023-04-03T08:29:35;3.90;99.90
41924;DHT22;27613;48.116;11.656;2023-04-03T08:32:03;4.00;99.90
41924;DHT22;27613;48.116;11.656;2023-04-03T08:34:29;4.20;99.90
41924;DHT22;27613;48.116;11.656;2023-04-03T08:36:54;4.20;99.90
41924;DHT22;27613;48.116;11.656;2023-04-03T08:39:20;4.30;99.90
41924;DHT22;27613;48.116;11.656;2023-04-03T08:41:46;4.30;99.90
41924;DHT22;27613;48.116;11.656;2023-04-03T08:50:02;4.40;99.90
41924;DHT22;27613;48.116;11.656;2023-04-03T08:52:36;4.40;99.90
41924;DHT22;27613;48.116;11.656;2023-04-03T08:55:24;4.60;99.90
41924;DHT22;27613;48.116;11.656;2023-04-03T08:58:06;4.70;99.90
41924;DHT22;27613;48.116;11.656;2023-04-03T09:03:12;4.90;99.90
41924;DHT22;27613;48.116;11.656;2023-04-03T09:05:43;4.90;99.90
41924;DHT22;27613;48.116;11.656;2023-04-03T09:08:42;4.80;99.90
41924;DHT22;27613;48.116;11.656;2023-04-03T09:11:26;4.90;99.90
41924;DHT22;27613;48.116;11.656;2023-04-03T09:14:07;5.10;99.90
41924;DHT22;27613;48.116;11.656;2023-04-03T09:17:00;5.20;99.90
41924;DHT22;27613;48.116;11.656;2023-04-03T09:22:02;5.80;99.90
41924;DHT22;27613;48.116;11.656;2023-04-03T09:24:29;5.20;99.90
41924;DHT22;27613;48.116;11.656;2023-04-03T09:27:04;5.50;99.90
41924;DHT22;27613;48.116;11.656;2023-04-03T09:29:31;5.50;99.90
41924;DHT22;27613;48.116;11.656;2023-04-03T09:32:02;5.40;99.90
41924;DHT22;27613;48.116;11.656;2023-04-03T09:34:40;5.40;99.90
41924;DHT22;27613;48.116;11.656;2023-04-03T09:37:07;5.30;99.90
41924;DHT22;27613;48.116;11.656;2023-04-03T09:39:52;5.40;99.90
41924;DHT22;27613;48.116;11.656;2023-04-03T09:42:24;5.50;99.90
41924;DHT22;27613;48.116;11.656;2023-04-03T09:44:55;5.40;99.90
41924;DHT22;27613;48.116;11.656;2023-04-03T09:47:27;5.30;99.90
41924;DHT22;27613;48.116;11.656;2023-04-03T09:52:38;5.10;99.90
41924;DHT22;27613;48.116;11.656;2023-04-03T09:57:57;5.10;99.90
41924;DHT22;27613;48.116;11.656;2023-04-03T10:00:33;5.20;99.90
41924;DHT22;27613;48.116;11.656;2023-04-03T10:02:59;5.10;99.90
41924;DHT22;27613;48.116;11.656;2023-04-03T10:05:40;5.10;99.90
41924;DHT22;27613;48.116;11.656;2023-04-03T10:10:46;5.10;99.90
41924;DHT22;27613;48.116;11.656;2023-04-03T10:13:15;5.30;99.90
41924;DHT22;27613;48.116;11.656;2023-04-03T10:15:46;5.30;99.90
41924;DHT22;27613;48.116;11.656;2023-04-03T10:18:53;5.40;99.90
41924;DHT22;27613;48.116;11.656;2023-04-03T10:21:55;5.40;99.90
41924;DHT22;27613;48.116;11.656;2023-04-03T10:27:09;5.70;99.90
41924;DHT22;27613;48.116;11.656;2023-04-03T10:35:11;5.60;99.90
41924;DHT22;27613;48.116;11.656;2023-04-03T10:38:24;5.70;99.90
41924;DHT22;27613;48.116;11.656;2023-04-03T10:41:10;5.10;99.90
41924;DHT22;27613;48.116;11.656;2023-04-03T10:43:50;4.30;99.90
41924;DHT22;27613;48.116;11.656;2023-04-03T10:46:32;4.30;99.90
41924;DHT22;27613;48.116;11.656;2023-04-03T10:49:32;4.30;99.90
41924;DHT22;27613;48.116;11.656;2023-04-03T10:52:09;4.40;99.90
41924;DHT22;27613;48.116;11.656;2023-04-03T10:54:42;4.50;99.90
41924;DHT22;27613;48.116;11.656;2023-04-03T10:57:10;4.40;99.90
41924;DHT22;27613;48.116;11.656;2023-04-03T11:00:06;4.10;99.90
41924;DHT22;27613;48.116;11.656;2023-04-03T11:02:45;4.20;99.90
41924;DHT22;27613;48.116;11.656;2023-04-03T11:05:30;4.20;99.90
41924;DHT22;27613;48.116;11.656;2023-04-03T11:08:03;4.30;99.90
41924;DHT22;27613;48.116;11.656;2023-04-03T11:10:48;4.50;99.90
41924;DHT22;27613;48.116;11.656;2023-04-03T11:13:22;4.30;99.90
41924;DHT22;27613;48.116;11.656;2023-04-03T11:15:53;4.40;99.90
41924;DHT22;27613;48.116;11.656;2023-04-03T11:18:26;4.50;99.90
41924;DHT22;27613;48.116;11.656;2023-04-03T11:21:00;4.50;99.90
41924;DHT22;27613;48.116;11.656;2023-04-03T11:23:32;4.50;99.90
41924;DHT22;27613;48.116;11.656;2023-04-03T11:26:11;4.50;99.90
41924;DHT22;27613;48.116;11.656;2023-04-03T11:28:37;4.40;99.90
41924;DHT22;27613;48.116;11.656;2023-04-03T11:34:21;4.60;99.90
41924;DHT22;27613;48.116;11.656;2023-04-03T11:36:48;4.40;99.90
41924;DHT22;27613;48.116;11.656;2023-04-03T11:39:33;4.50;99.90
41924;DHT22;27613;48.116;11.656;2023-04-03T11:42:38;4.50;99.90
41924;DHT22;27613;48.116;11.656;2023-04-03T11:47:54;4.50;99.90
41924;DHT22;27613;48.116;11.656;2023-04-03T12:05:53;4.80;94.20
41924;DHT22;27613;48.116;11.656;2023-04-03T12:32:20;5.70;90.10
41924;DHT22;27613;48.116;11.656;2023-04-03T12:35:24;5.80;90.00
41924;DHT22;27613;48.116;11.656;2023-04-03T12:43:18;6.40;86.20
41924;DHT22;27613;48.116;11.656;2023-04-03T12:45:59;6.60;84.10
41924;DHT22;27613;48.116;11.656;2023-04-03T12:48:29;6.70;82.60
41924;DHT22;27613;48.116;11.656;2023-04-03T12:50:57;6.90;82.40
41924;DHT22;27613;48.116;11.656;2023-04-03T12:53:26;7.20;80.70
41924;DHT22;27613;48.116;11.656;2023-04-03T12:55:57;7.50;79.90
41924;DHT22;27613;48.116;11.656;2023-04-03T12:58:26;7.90;79.10
41924;DHT22;27613;48.116;11.656;2023-04-03T13:01:03;8.10;75.50
41924;DHT22;27613;48.116;11.656;2023-04-03T13:03:29;8.40;73.70
41924;DHT22;27613;48.116;11.656;2023-04-03T13:05:59;8.30;72.70
41924;DHT22;27613;48.116;11.656;2023-04-03T13:08:26;9.10;75.40
41924;DHT22;27613;48.116;11.656;2023-04-03T13:10:53;11.00;68.00
41924;DHT22;27613;48.116;11.656;2023-04-03T13:13:20;12.30;66.20
41924;DHT22;27613;48.116;11.656;2023-04-03T13:15:48;12.50;63.50
41924;DHT22;27613;48.116;11.656;2023-04-03T13:18:32;11.60;61.10
41924;DHT22;27613;48.116;11.656;2023-04-03T13:21:20;11.80;63.80
41924;DHT22;27613;48.116;11.656;2023-04-03T13:23:49;11.00;62.70
41924;DHT22;27613;48.116;11.656;2023-04-03T13:26:17;10.10;64.40
41924;DHT22;27613;48.116;11.656;2023-04-03T13:28:44;9.90;64.90
41924;DHT22;27613;48.116;11.656;2023-04-03T13:33:43;10.20;64.40
41924;DHT22;27613;48.116;11.656;2023-04-03T13:36:23;11.90;63.00
41924;DHT22;27613;48.116;11.656;2023-04-03T13:39:27;12.40;60.50
41924;DHT22;27613;48.116;11.656;2023-04-03T13:41:56;12.60;58.80
41924;DHT22;27613;48.116;11.656;2023-04-03T13:46:51;12.30;55.90
41924;DHT22;27613;48.116;11.656;2023-04-03T13:52:41;10.10;62.60
41924;DHT22;27613;48.116;11.656;2023-04-03T14:00:38;8.10;65.20
41924;DHT22;27613;48.116;11.656;2023-04-03T14:06:06;7.60;68.00
41924;DHT22;27613;48.116;11.656;2023-04-03T14:08:32;7.40;67.10
41924;DHT22;27613;48.116;11.656;2023-04-03T14:10:57;7.30;67.90
41924;DHT22;27613;48.116;11.656;2023-04-03T14:13:23;7.20;67.90
41924;DHT22;27613;48.116;11.656;2023-04-03T14:15:49;7.10;68.40
41924;DHT22;27613;48.116;11.656;2023-04-03T14:18:19;6.80;68.00
41924;DHT22;27613;48.116;11.656;2023-04-03T14:20:45;7.00;68.60
41924;DHT22;27613;48.116;11.656;2023-04-03T14:23:11;7.00;67.70
41924;DHT22;27613;48.116;11.656;2023-04-03T14:25:37;7.10;67.80
41924;DHT22;27613;48.116;11.656;2023-04-03T14:28:21;7.30;66.60
41924;DHT22;27613;48.116;11.656;2023-04-03T14:30:49;7.40;67.20
41924;DHT22;27613;48.116;11.656;2023-04-03T14:33:18;7.90;64.80
41924;DHT22;27613;48.116;11.656;2023-04-03T14:35:44;8.90;63.30
41924;DHT22;27613;48.116;11.656;2023-04-03T14:40:47;10.00;59.10
41924;DHT22;27613;48.116;11.656;2023-04-03T14:43:12;10.80;57.60
41924;DHT22;27613;48.116;11.656;2023-04-03T14:45:38;10.90;57.40
41924;DHT22;27613;48.116;11.656;2023-04-03T14:48:04;10.60;58.30
41924;DHT22;27613;48.116;11.656;2023-04-03T14:50:31;10.60;56.40
41924;DHT22;27613;48.116;11.656;2023-04-03T14:52:58;10.80;55.30
41924;DHT22;27613;48.116;11.656;2023-04-03T14:55:25;10.70;55.80
41924;DHT22;27613;48.116;11.656;2023-04-03T14:57:51;11.40;55.20
41924;DHT22;27613;48.116;11.656;2023-04-03T15:00:20;12.10;54.40
41924;DHT22;27613;48.116;11.656;2023-04-03T15:02:46;12.30;52.10
41924;DHT22;27613;48.116;11.656;2023-04-03T15:05:14;12.00;52.10
41924;DHT22;27613;48.116;11.656;2023-04-03T15:07:43;10.80;55.70
41924;DHT22;27613;48.116;11.656;2023-04-03T15:10:18;10.80;55.00
41924;DHT22;27613;48.116;11.656;2023-04-03T15:12:45;10.90;54.80
41924;DHT22;27613;48.116;11.656;2023-04-03T15:15:11;10.70;56.10
41924;DHT22;27613;48.116;11.656;2023-04-03T15:17:37;9.80;57.00
41924;DHT22;27613;48.116;11.656;2023-04-03T15:20:06;9.30;55.60
41924;DHT22;27613;48.116;11.656;2023-04-03T15:22:36;8.90;56.60
41924;DHT22;27613;48.116;11.656;2023-04-03T15:25:02;8.40;58.10
41924;DHT22;27613;48.116;11.656;2023-04-03T15:27:28;8.60;59.40
41924;DHT22;27613;48.116;11.656;2023-04-03T15:29:54;8.40;59.00
41924;DHT22;27613;48.116;11.656;2023-04-03T15:32:19;8.20;57.50
41924;DHT22;27613;48.116;11.656;2023-04-03T15:34:45;7.80;58.30
41924;DHT22;27613;48.116;11.656;2023-04-03T15:37:10;8.50;58.50
41924;DHT22;27613;48.116;11.656;2023-04-03T15:39:36;9.70;55.70
41924;DHT22;27613;48.116;11.656;2023-04-03T15:42:01;10.90;52.90
41924;DHT22;27613;48.116;11.656;2023-04-03T15:44:32;11.10;51.60
41924;DHT22;27613;48.116;11.656;2023-04-03T15:46:59;10.70;51.70
41924;DHT22;27613;48.116;11.656;2023-04-03T15:49:25;10.50;51.80
41924;DHT22;27613;48.116;11.656;2023-04-03T15:51:51;11.00;51.90
41924;DHT22;27613;48.116;11.656;2023-04-03T15:54:17;9.90;54.30
41924;DHT22;27613;48.116;11.656;2023-04-03T15:56:43;11.60;51.30
41924;DHT22;27613;48.116;11.656;2023-04-03T15:59:09;12.30;48.80
41924;DHT22;27613;48.116;11.656;2023-04-03T16:01:34;10.40;51.30
41924;DHT22;27613;48.116;11.656;2023-04-03T16:04:01;10.70;52.30
41924;DHT22;27613;48.116;11.656;2023-04-03T16:06:27;11.40;50.90
41924;DHT22;27613;48.116;11.656;2023-04-03T16:08:54;10.90;52.30
41924;DHT22;27613;48.116;11.656;2023-04-03T16:11:26;10.70;52.20
41924;DHT22;27613;48.116;11.656;2023-04-03T16:13:52;9.60;53.60
41924;DHT22;27613;48.116;11.656;2023-04-03T16:16:17;9.70;55.40
41924;DHT22;27613;48.116;11.656;2023-04-03T16:18:43;9.90;54.70
41924;DHT22;27613;48.116;11.656;2023-04-03T16:21:09;8.90;56.40
41924;DHT22;27613;48.116;11.656;2023-04-03T16:23:35;8.00;57.10
41924;DHT22;27613;48.116;11.656;2023-04-03T16:26:00;7.20;59.40
41924;DHT22;27613;48.116;11.656;2023-04-03T16:28:26;7.50;59.30
41924;DHT22;27613;48.116;11.656;2023-04-03T16:30:52;7.20;60.00
41924;DHT22;27613;48.116;11.656;2023-04-03T16:33:17;7.50;58.10
41924;DHT22;27613;48.116;11.656;2023-04-03T16:35:46;7.00;58.80
41924;DHT22;27613;48.116;11.656;2023-04-03T16:38:14;7.00;58.70
41924;DHT22;27613;48.116;11.656;2023-04-03T16:40:40;7.00;60.10
41924;DHT22;27613;48.116;11.656;2023-04-03T16:43:05;6.30;61.30
41924;DHT22;27613;48.116;11.656;2023-04-03T16:45:31;6.30;62.00
41924;DHT22;27613;48.116;11.656;2023-04-03T16:47:56;6.60;62.70
41924;DHT22;27613;48.116;11.656;2023-04-03T16:50:22;6.60;62.00
41924;DHT22;27613;48.116;11.656;2023-04-03T16:52:47;6.70;60.60
41924;DHT22;27613;48.116;11.656;2023-04-03T16:55:13;6.40;61.80
41924;DHT22;27613;48.116;11.656;2023-04-03T16:57:39;6.30;62.40
41924;DHT22;27613;48.116;11.656;2023-04-03T17:00:05;6.10;63.60
41924;DHT22;27613;48.116;11.656;2023-04-03T17:02:31;5.80;64.70
41924;DHT22;27613;48.116;11.656;2023-04-03T17:04:56;5.70;65.00
41924;DHT22;27613;48.116;11.656;2023-04-03T17:07:23;5.60;65.60
41924;DHT22;27613;48.116;11.656;2023-04-03T17:09:50;5.60;65.90
41924;DHT22;27613;48.116;11.656;2023-04-03T17:12:16;5.60;65.90
41924;DHT22;27613;48.116;11.656;2023-04-03T17:14:42;5.30;67.10
41924;DHT22;27613;48.116;11.656;2023-04-03T17:17:09;5.50;67.10
41924;DHT22;27613;48.116;11.656;2023-04-03T17:19:35;5.30;67.60
41924;DHT22;27613;48.116;11.656;2023-04-03T17:22:02;5.30;67.20
41924;DHT22;27613;48.116;11.656;2023-04-03T17:24:28;5.40;67.30